<?xml version="1.0" encoding="UTF-8" standalone="no" ?>
<gpx xmlns="http://www.topografix.com/GPX/1/1" xmlns:xsi="http://www.w3.org/2001/XMLSchema-instance" xsi:schemaLocation="http://www.topografix.com/GPX/1/1 http://www.topografix.com/GPX/1/1/gpx.xsd" version="1.1" creator="VisuGPX - https://www.visugpx.com">
  <metadata>
    <name>Courry-Chadouillet-Cotepatière</name>
    <desc><![CDATA[Promenade facile à voir l'aven de la Coccalière, résurgences et la grotte de la Cotepatière pour les plus sportifs.]]></desc>
  </metadata>
  <trk>
    <name><![CDATA[2019-10-13 14:58:28]]></name>
    <trkseg>
      <trkpt lat="44.31634" lon="4.15627">
        <ele>242.87</ele>
        <time>2019-10-13T11:55:58Z</time>
      </trkpt>
      <trkpt lat="44.31643" lon="4.15627">
        <ele>242.87</ele>
        <time>2019-10-13T11:56:18Z</time>
      </trkpt>
      <trkpt lat="44.31647" lon="4.15622">
        <ele>242.87</ele>
        <time>2019-10-13T11:56:24Z</time>
      </trkpt>
      <trkpt lat="44.31649" lon="4.15619">
        <ele>242.87</ele>
        <time>2019-10-13T11:56:32Z</time>
      </trkpt>
      <trkpt lat="44.31664" lon="4.1561">
        <ele>242.87</ele>
        <time>2019-10-13T11:56:49Z</time>
      </trkpt>
      <trkpt lat="44.31677" lon="4.15602">
        <ele>242.87</ele>
        <time>2019-10-13T11:57:03Z</time>
      </trkpt>
      <trkpt lat="44.31688" lon="4.15596">
        <ele>243.35</ele>
        <time>2019-10-13T11:57:17Z</time>
      </trkpt>
      <trkpt lat="44.317" lon="4.15582">
        <ele>243.35</ele>
        <time>2019-10-13T11:57:30Z</time>
      </trkpt>
      <trkpt lat="44.31714" lon="4.15576">
        <ele>243.35</ele>
        <time>2019-10-13T11:57:44Z</time>
      </trkpt>
      <trkpt lat="44.31716" lon="4.15581">
        <ele>243.35</ele>
        <time>2019-10-13T11:57:48Z</time>
      </trkpt>
      <trkpt lat="44.31719" lon="4.15607">
        <ele>242.39</ele>
        <time>2019-10-13T11:58:04Z</time>
      </trkpt>
      <trkpt lat="44.31719" lon="4.1561">
        <ele>242.39</ele>
        <time>2019-10-13T11:58:06Z</time>
      </trkpt>
      <trkpt lat="44.31717" lon="4.1564">
        <ele>242.39</ele>
        <time>2019-10-13T11:58:24Z</time>
      </trkpt>
      <trkpt lat="44.31719" lon="4.15671">
        <ele>242.39</ele>
        <time>2019-10-13T11:58:42Z</time>
      </trkpt>
      <trkpt lat="44.31721" lon="4.157">
        <ele>242.39</ele>
        <time>2019-10-13T11:58:58Z</time>
      </trkpt>
      <trkpt lat="44.31722" lon="4.15727">
        <ele>242.39</ele>
        <time>2019-10-13T11:59:14Z</time>
      </trkpt>
      <trkpt lat="44.31722" lon="4.15749">
        <ele>242.39</ele>
        <time>2019-10-13T11:59:30Z</time>
      </trkpt>
      <trkpt lat="44.31721" lon="4.15762">
        <ele>241.43</ele>
        <time>2019-10-13T11:59:47Z</time>
      </trkpt>
      <trkpt lat="44.31721" lon="4.15763">
        <ele>242.87</ele>
        <time>2019-10-13T11:59:53Z</time>
      </trkpt>
      <trkpt lat="44.3172" lon="4.15793">
        <ele>242.87</ele>
        <time>2019-10-13T12:00:09Z</time>
      </trkpt>
      <trkpt lat="44.31724" lon="4.15825">
        <ele>242.87</ele>
        <time>2019-10-13T12:00:28Z</time>
      </trkpt>
      <trkpt lat="44.31727" lon="4.15857">
        <ele>242.87</ele>
        <time>2019-10-13T12:00:47Z</time>
      </trkpt>
      <trkpt lat="44.31727" lon="4.15883">
        <ele>242.87</ele>
        <time>2019-10-13T12:01:03Z</time>
      </trkpt>
      <trkpt lat="44.31729" lon="4.15911">
        <ele>242.87</ele>
        <time>2019-10-13T12:01:21Z</time>
      </trkpt>
      <trkpt lat="44.31729" lon="4.15919">
        <ele>242.87</ele>
        <time>2019-10-13T12:01:26Z</time>
      </trkpt>
      <trkpt lat="44.31729" lon="4.1593">
        <ele>242.87</ele>
        <time>2019-10-13T12:01:32Z</time>
      </trkpt>
      <trkpt lat="44.31724" lon="4.15956">
        <ele>242.87</ele>
        <time>2019-10-13T12:01:49Z</time>
      </trkpt>
      <trkpt lat="44.3172" lon="4.15982">
        <ele>242.39</ele>
        <time>2019-10-13T12:02:04Z</time>
      </trkpt>
      <trkpt lat="44.31717" lon="4.16006">
        <ele>242.39</ele>
        <time>2019-10-13T12:02:18Z</time>
      </trkpt>
      <trkpt lat="44.31716" lon="4.1603">
        <ele>241.43</ele>
        <time>2019-10-13T12:02:34Z</time>
      </trkpt>
      <trkpt lat="44.31719" lon="4.16053">
        <ele>241.43</ele>
        <time>2019-10-13T12:02:47Z</time>
      </trkpt>
      <trkpt lat="44.31721" lon="4.16075">
        <ele>241.43</ele>
        <time>2019-10-13T12:03:00Z</time>
      </trkpt>
      <trkpt lat="44.31722" lon="4.161">
        <ele>240.95</ele>
        <time>2019-10-13T12:03:15Z</time>
      </trkpt>
      <trkpt lat="44.31721" lon="4.16125">
        <ele>240.95</ele>
        <time>2019-10-13T12:03:30Z</time>
      </trkpt>
      <trkpt lat="44.31727" lon="4.16149">
        <ele>240.47</ele>
        <time>2019-10-13T12:03:45Z</time>
      </trkpt>
      <trkpt lat="44.31735" lon="4.16174">
        <ele>240.47</ele>
        <time>2019-10-13T12:04:01Z</time>
      </trkpt>
      <trkpt lat="44.31741" lon="4.16201">
        <ele>239.99</ele>
        <time>2019-10-13T12:04:17Z</time>
      </trkpt>
      <trkpt lat="44.31744" lon="4.16226">
        <ele>239.51</ele>
        <time>2019-10-13T12:04:31Z</time>
      </trkpt>
      <trkpt lat="44.31744" lon="4.1624">
        <ele>239.02</ele>
        <time>2019-10-13T12:04:46Z</time>
      </trkpt>
      <trkpt lat="44.31747" lon="4.16259">
        <ele>239.02</ele>
        <time>2019-10-13T12:04:59Z</time>
      </trkpt>
      <trkpt lat="44.31747" lon="4.16286">
        <ele>239.02</ele>
        <time>2019-10-13T12:05:16Z</time>
      </trkpt>
      <trkpt lat="44.31751" lon="4.1631">
        <ele>239.02</ele>
        <time>2019-10-13T12:05:31Z</time>
      </trkpt>
      <trkpt lat="44.31757" lon="4.16333">
        <ele>239.02</ele>
        <time>2019-10-13T12:05:46Z</time>
      </trkpt>
      <trkpt lat="44.31759" lon="4.16346">
        <ele>239.02</ele>
        <time>2019-10-13T12:06:00Z</time>
      </trkpt>
      <trkpt lat="44.3176" lon="4.16349">
        <ele>239.02</ele>
        <time>2019-10-13T12:06:02Z</time>
      </trkpt>
      <trkpt lat="44.31764" lon="4.16369">
        <ele>239.02</ele>
        <time>2019-10-13T12:06:16Z</time>
      </trkpt>
      <trkpt lat="44.3177" lon="4.16389">
        <ele>238.54</ele>
        <time>2019-10-13T12:06:30Z</time>
      </trkpt>
      <trkpt lat="44.31781" lon="4.16411">
        <ele>238.06</ele>
        <time>2019-10-13T12:06:45Z</time>
      </trkpt>
      <trkpt lat="44.31795" lon="4.16429">
        <ele>238.06</ele>
        <time>2019-10-13T12:07:01Z</time>
      </trkpt>
      <trkpt lat="44.31796" lon="4.16431">
        <ele>238.06</ele>
        <time>2019-10-13T12:07:03Z</time>
      </trkpt>
      <trkpt lat="44.31806" lon="4.16448">
        <ele>238.06</ele>
        <time>2019-10-13T12:07:17Z</time>
      </trkpt>
      <trkpt lat="44.31812" lon="4.16473">
        <ele>238.06</ele>
        <time>2019-10-13T12:07:34Z</time>
      </trkpt>
      <trkpt lat="44.31819" lon="4.16492">
        <ele>238.06</ele>
        <time>2019-10-13T12:07:50Z</time>
      </trkpt>
      <trkpt lat="44.31821" lon="4.165">
        <ele>238.06</ele>
        <time>2019-10-13T12:07:56Z</time>
      </trkpt>
      <trkpt lat="44.31831" lon="4.16526">
        <ele>239.99</ele>
        <time>2019-10-13T12:08:16Z</time>
      </trkpt>
      <trkpt lat="44.3184" lon="4.16543">
        <ele>239.99</ele>
        <time>2019-10-13T12:08:30Z</time>
      </trkpt>
      <trkpt lat="44.31845" lon="4.16555">
        <ele>240.47</ele>
        <time>2019-10-13T12:08:43Z</time>
      </trkpt>
      <trkpt lat="44.31847" lon="4.16564">
        <ele>239.99</ele>
        <time>2019-10-13T12:08:50Z</time>
      </trkpt>
      <trkpt lat="44.31847" lon="4.16584">
        <ele>239.99</ele>
        <time>2019-10-13T12:09:04Z</time>
      </trkpt>
      <trkpt lat="44.31847" lon="4.16608">
        <ele>240.95</ele>
        <time>2019-10-13T12:09:20Z</time>
      </trkpt>
      <trkpt lat="44.31848" lon="4.16629">
        <ele>240.47</ele>
        <time>2019-10-13T12:09:36Z</time>
      </trkpt>
      <trkpt lat="44.31846" lon="4.16655">
        <ele>240.47</ele>
        <time>2019-10-13T12:09:52Z</time>
      </trkpt>
      <trkpt lat="44.31844" lon="4.16675">
        <ele>240.47</ele>
        <time>2019-10-13T12:10:08Z</time>
      </trkpt>
      <trkpt lat="44.31844" lon="4.16689">
        <ele>239.02</ele>
        <time>2019-10-13T12:10:19Z</time>
      </trkpt>
      <trkpt lat="44.31846" lon="4.16708">
        <ele>239.02</ele>
        <time>2019-10-13T12:10:33Z</time>
      </trkpt>
      <trkpt lat="44.31848" lon="4.1672">
        <ele>239.02</ele>
        <time>2019-10-13T12:10:40Z</time>
      </trkpt>
      <trkpt lat="44.31852" lon="4.16742">
        <ele>238.54</ele>
        <time>2019-10-13T12:10:56Z</time>
      </trkpt>
      <trkpt lat="44.31857" lon="4.16764">
        <ele>238.54</ele>
        <time>2019-10-13T12:11:11Z</time>
      </trkpt>
      <trkpt lat="44.31857" lon="4.16776">
        <ele>239.99</ele>
        <time>2019-10-13T12:11:18Z</time>
      </trkpt>
      <trkpt lat="44.31857" lon="4.16778">
        <ele>239.99</ele>
        <time>2019-10-13T12:11:19Z</time>
      </trkpt>
      <trkpt lat="44.3186" lon="4.16804">
        <ele>239.99</ele>
        <time>2019-10-13T12:11:34Z</time>
      </trkpt>
      <trkpt lat="44.31865" lon="4.16819">
        <ele>239.51</ele>
        <time>2019-10-13T12:11:44Z</time>
      </trkpt>
      <trkpt lat="44.31868" lon="4.16837">
        <ele>239.51</ele>
        <time>2019-10-13T12:11:58Z</time>
      </trkpt>
      <trkpt lat="44.31868" lon="4.16842">
        <ele>238.54</ele>
        <time>2019-10-13T12:12:02Z</time>
      </trkpt>
      <trkpt lat="44.31869" lon="4.1685">
        <ele>237.58</ele>
        <time>2019-10-13T12:12:13Z</time>
      </trkpt>
      <trkpt lat="44.31869" lon="4.16857">
        <ele>237.58</ele>
        <time>2019-10-13T12:12:17Z</time>
      </trkpt>
      <trkpt lat="44.31868" lon="4.16879">
        <ele>236.14</ele>
        <time>2019-10-13T12:12:30Z</time>
      </trkpt>
      <trkpt lat="44.31868" lon="4.16894">
        <ele>235.18</ele>
        <time>2019-10-13T12:12:42Z</time>
      </trkpt>
      <trkpt lat="44.31866" lon="4.1691">
        <ele>234.7</ele>
        <time>2019-10-13T12:12:54Z</time>
      </trkpt>
      <trkpt lat="44.31864" lon="4.1692">
        <ele>234.22</ele>
        <time>2019-10-13T12:13:00Z</time>
      </trkpt>
      <trkpt lat="44.31862" lon="4.16945">
        <ele>233.74</ele>
        <time>2019-10-13T12:13:17Z</time>
      </trkpt>
      <trkpt lat="44.3186" lon="4.16952">
        <ele>233.26</ele>
        <time>2019-10-13T12:13:22Z</time>
      </trkpt>
      <trkpt lat="44.31854" lon="4.16977">
        <ele>232.3</ele>
        <time>2019-10-13T12:13:37Z</time>
      </trkpt>
      <trkpt lat="44.31847" lon="4.16996">
        <ele>232.3</ele>
        <time>2019-10-13T12:13:53Z</time>
      </trkpt>
      <trkpt lat="44.3184" lon="4.17024">
        <ele>232.3</ele>
        <time>2019-10-13T12:14:11Z</time>
      </trkpt>
      <trkpt lat="44.31835" lon="4.17058">
        <ele>232.3</ele>
        <time>2019-10-13T12:14:25Z</time>
      </trkpt>
      <trkpt lat="44.31835" lon="4.17059">
        <ele>232.3</ele>
        <time>2019-10-13T12:14:26Z</time>
      </trkpt>
      <trkpt lat="44.31838" lon="4.1708">
        <ele>233.26</ele>
        <time>2019-10-13T12:14:41Z</time>
      </trkpt>
      <trkpt lat="44.31839" lon="4.17087">
        <ele>233.26</ele>
        <time>2019-10-13T12:14:46Z</time>
      </trkpt>
      <trkpt lat="44.31839" lon="4.17104">
        <ele>233.26</ele>
        <time>2019-10-13T12:15:01Z</time>
      </trkpt>
      <trkpt lat="44.31839" lon="4.17106">
        <ele>233.26</ele>
        <time>2019-10-13T12:15:05Z</time>
      </trkpt>
      <trkpt lat="44.31836" lon="4.17129">
        <ele>233.26</ele>
        <time>2019-10-13T12:15:19Z</time>
      </trkpt>
      <trkpt lat="44.31834" lon="4.17152">
        <ele>233.26</ele>
        <time>2019-10-13T12:15:34Z</time>
      </trkpt>
      <trkpt lat="44.31834" lon="4.17159">
        <ele>233.26</ele>
        <time>2019-10-13T12:15:39Z</time>
      </trkpt>
      <trkpt lat="44.31834" lon="4.17178">
        <ele>231.81</ele>
        <time>2019-10-13T12:15:53Z</time>
      </trkpt>
      <trkpt lat="44.31834" lon="4.17179">
        <ele>231.81</ele>
        <time>2019-10-13T12:15:54Z</time>
      </trkpt>
      <trkpt lat="44.31835" lon="4.17202">
        <ele>231.33</ele>
        <time>2019-10-13T12:16:08Z</time>
      </trkpt>
      <trkpt lat="44.31836" lon="4.17228">
        <ele>231.33</ele>
        <time>2019-10-13T12:16:25Z</time>
      </trkpt>
      <trkpt lat="44.31839" lon="4.17257">
        <ele>231.33</ele>
        <time>2019-10-13T12:16:41Z</time>
      </trkpt>
      <trkpt lat="44.31844" lon="4.17279">
        <ele>230.85</ele>
        <time>2019-10-13T12:16:55Z</time>
      </trkpt>
      <trkpt lat="44.31852" lon="4.17298">
        <ele>230.37</ele>
        <time>2019-10-13T12:17:11Z</time>
      </trkpt>
      <trkpt lat="44.31855" lon="4.17322">
        <ele>229.89</ele>
        <time>2019-10-13T12:17:26Z</time>
      </trkpt>
      <trkpt lat="44.31857" lon="4.17342">
        <ele>228.93</ele>
        <time>2019-10-13T12:17:42Z</time>
      </trkpt>
      <trkpt lat="44.31859" lon="4.1736">
        <ele>228.93</ele>
        <time>2019-10-13T12:17:56Z</time>
      </trkpt>
      <trkpt lat="44.31862" lon="4.17382">
        <ele>227.49</ele>
        <time>2019-10-13T12:18:10Z</time>
      </trkpt>
      <trkpt lat="44.31862" lon="4.17384">
        <ele>227.49</ele>
        <time>2019-10-13T12:18:11Z</time>
      </trkpt>
      <trkpt lat="44.31864" lon="4.17403">
        <ele>227.49</ele>
        <time>2019-10-13T12:18:25Z</time>
      </trkpt>
      <trkpt lat="44.31864" lon="4.1742">
        <ele>227.01</ele>
        <time>2019-10-13T12:18:38Z</time>
      </trkpt>
      <trkpt lat="44.31864" lon="4.17442">
        <ele>227.01</ele>
        <time>2019-10-13T12:18:53Z</time>
      </trkpt>
      <trkpt lat="44.31864" lon="4.17445">
        <ele>227.01</ele>
        <time>2019-10-13T12:18:56Z</time>
      </trkpt>
      <trkpt lat="44.31868" lon="4.17466">
        <ele>227.01</ele>
        <time>2019-10-13T12:19:12Z</time>
      </trkpt>
      <trkpt lat="44.31872" lon="4.17485">
        <ele>227.01</ele>
        <time>2019-10-13T12:19:25Z</time>
      </trkpt>
      <trkpt lat="44.31882" lon="4.17509">
        <ele>227.01</ele>
        <time>2019-10-13T12:19:40Z</time>
      </trkpt>
      <trkpt lat="44.31892" lon="4.17532">
        <ele>227.01</ele>
        <time>2019-10-13T12:19:57Z</time>
      </trkpt>
      <trkpt lat="44.31894" lon="4.17554">
        <ele>227.01</ele>
        <time>2019-10-13T12:20:11Z</time>
      </trkpt>
      <trkpt lat="44.31896" lon="4.1758">
        <ele>227.97</ele>
        <time>2019-10-13T12:20:27Z</time>
      </trkpt>
      <trkpt lat="44.31897" lon="4.17606">
        <ele>228.45</ele>
        <time>2019-10-13T12:20:43Z</time>
      </trkpt>
      <trkpt lat="44.31898" lon="4.17626">
        <ele>228.93</ele>
        <time>2019-10-13T12:21:00Z</time>
      </trkpt>
      <trkpt lat="44.31901" lon="4.17649">
        <ele>229.41</ele>
        <time>2019-10-13T12:21:19Z</time>
      </trkpt>
      <trkpt lat="44.319" lon="4.17652">
        <ele>229.41</ele>
        <time>2019-10-13T12:21:48Z</time>
      </trkpt>
      <trkpt lat="44.31905" lon="4.17651">
        <ele>229.41</ele>
        <time>2019-10-13T12:22:19Z</time>
      </trkpt>
      <trkpt lat="44.31903" lon="4.17662">
        <ele>230.37</ele>
        <time>2019-10-13T12:22:34Z</time>
      </trkpt>
      <trkpt lat="44.31904" lon="4.17669">
        <ele>230.37</ele>
        <time>2019-10-13T12:22:47Z</time>
      </trkpt>
      <trkpt lat="44.31914" lon="4.17679">
        <ele>231.81</ele>
        <time>2019-10-13T12:23:04Z</time>
      </trkpt>
      <trkpt lat="44.31932" lon="4.17694">
        <ele>233.74</ele>
        <time>2019-10-13T12:23:24Z</time>
      </trkpt>
      <trkpt lat="44.31946" lon="4.17708">
        <ele>234.7</ele>
        <time>2019-10-13T12:23:40Z</time>
      </trkpt>
      <trkpt lat="44.31947" lon="4.1771">
        <ele>234.7</ele>
        <time>2019-10-13T12:23:43Z</time>
      </trkpt>
      <trkpt lat="44.3196" lon="4.17722">
        <ele>235.18</ele>
        <time>2019-10-13T12:23:57Z</time>
      </trkpt>
      <trkpt lat="44.3197" lon="4.17742">
        <ele>235.66</ele>
        <time>2019-10-13T12:24:16Z</time>
      </trkpt>
      <trkpt lat="44.31971" lon="4.17767">
        <ele>236.62</ele>
        <time>2019-10-13T12:24:34Z</time>
      </trkpt>
      <trkpt lat="44.31971" lon="4.17795">
        <ele>236.62</ele>
        <time>2019-10-13T12:24:53Z</time>
      </trkpt>
      <trkpt lat="44.3197" lon="4.17819">
        <ele>235.18</ele>
        <time>2019-10-13T12:25:09Z</time>
      </trkpt>
      <trkpt lat="44.31967" lon="4.17835">
        <ele>234.7</ele>
        <time>2019-10-13T12:25:18Z</time>
      </trkpt>
      <trkpt lat="44.31967" lon="4.17843">
        <ele>234.22</ele>
        <time>2019-10-13T12:25:21Z</time>
      </trkpt>
      <trkpt lat="44.31966" lon="4.17858">
        <ele>232.78</ele>
        <time>2019-10-13T12:25:34Z</time>
      </trkpt>
      <trkpt lat="44.31962" lon="4.1788">
        <ele>230.37</ele>
        <time>2019-10-13T12:25:50Z</time>
      </trkpt>
      <trkpt lat="44.3196" lon="4.17893">
        <ele>229.89</ele>
        <time>2019-10-13T12:25:59Z</time>
      </trkpt>
      <trkpt lat="44.31958" lon="4.17899">
        <ele>228.93</ele>
        <time>2019-10-13T12:26:18Z</time>
      </trkpt>
      <trkpt lat="44.31957" lon="4.17917">
        <ele>227.97</ele>
        <time>2019-10-13T12:26:33Z</time>
      </trkpt>
      <trkpt lat="44.31954" lon="4.17937">
        <ele>225.57</ele>
        <time>2019-10-13T12:26:49Z</time>
      </trkpt>
      <trkpt lat="44.31952" lon="4.17954">
        <ele>224.12</ele>
        <time>2019-10-13T12:27:04Z</time>
      </trkpt>
      <trkpt lat="44.31952" lon="4.17953">
        <ele>224.12</ele>
        <time>2019-10-13T12:27:34Z</time>
      </trkpt>
      <trkpt lat="44.31953" lon="4.17971">
        <ele>222.68</ele>
        <time>2019-10-13T12:27:53Z</time>
      </trkpt>
      <trkpt lat="44.31954" lon="4.17973">
        <ele>222.68</ele>
        <time>2019-10-13T12:27:54Z</time>
      </trkpt>
      <trkpt lat="44.31952" lon="4.17998">
        <ele>220.76</ele>
        <time>2019-10-13T12:28:11Z</time>
      </trkpt>
      <trkpt lat="44.31951" lon="4.18026">
        <ele>217.88</ele>
        <time>2019-10-13T12:28:28Z</time>
      </trkpt>
      <trkpt lat="44.31954" lon="4.18048">
        <ele>215.95</ele>
        <time>2019-10-13T12:28:43Z</time>
      </trkpt>
      <trkpt lat="44.31954" lon="4.18074">
        <ele>214.51</ele>
        <time>2019-10-13T12:28:58Z</time>
      </trkpt>
      <trkpt lat="44.31954" lon="4.18088">
        <ele>213.07</ele>
        <time>2019-10-13T12:29:16Z</time>
      </trkpt>
      <trkpt lat="44.31951" lon="4.1811">
        <ele>211.63</ele>
        <time>2019-10-13T12:29:29Z</time>
      </trkpt>
      <trkpt lat="44.31948" lon="4.18131">
        <ele>210.19</ele>
        <time>2019-10-13T12:29:43Z</time>
      </trkpt>
      <trkpt lat="44.31945" lon="4.1815">
        <ele>208.26</ele>
        <time>2019-10-13T12:29:56Z</time>
      </trkpt>
      <trkpt lat="44.31945" lon="4.18155">
        <ele>207.78</ele>
        <time>2019-10-13T12:30:00Z</time>
      </trkpt>
      <trkpt lat="44.31945" lon="4.18165">
        <ele>207.3</ele>
        <time>2019-10-13T12:30:07Z</time>
      </trkpt>
      <trkpt lat="44.31942" lon="4.18166">
        <ele>206.82</ele>
        <time>2019-10-13T12:30:10Z</time>
      </trkpt>
      <trkpt lat="44.31939" lon="4.18164">
        <ele>206.82</ele>
        <time>2019-10-13T12:30:13Z</time>
      </trkpt>
      <trkpt lat="44.31931" lon="4.1816">
        <ele>206.82</ele>
        <time>2019-10-13T12:30:26Z</time>
      </trkpt>
      <trkpt lat="44.31928" lon="4.18157">
        <ele>206.82</ele>
        <time>2019-10-13T12:30:45Z</time>
      </trkpt>
      <trkpt lat="44.31931" lon="4.18153">
        <ele>206.82</ele>
        <time>2019-10-13T12:30:56Z</time>
      </trkpt>
      <trkpt lat="44.31928" lon="4.18153">
        <ele>207.78</ele>
        <time>2019-10-13T12:31:03Z</time>
      </trkpt>
      <trkpt lat="44.31918" lon="4.18156">
        <ele>207.78</ele>
        <time>2019-10-13T12:31:15Z</time>
      </trkpt>
      <trkpt lat="44.31916" lon="4.1816">
        <ele>207.78</ele>
        <time>2019-10-13T12:31:34Z</time>
      </trkpt>
      <trkpt lat="44.31917" lon="4.1816">
        <ele>207.78</ele>
        <time>2019-10-13T12:32:05Z</time>
      </trkpt>
      <trkpt lat="44.31924" lon="4.18158">
        <ele>207.78</ele>
        <time>2019-10-13T12:32:19Z</time>
      </trkpt>
      <trkpt lat="44.31928" lon="4.18154">
        <ele>207.78</ele>
        <time>2019-10-13T12:32:37Z</time>
      </trkpt>
      <trkpt lat="44.31933" lon="4.18162">
        <ele>207.78</ele>
        <time>2019-10-13T12:32:51Z</time>
      </trkpt>
      <trkpt lat="44.31934" lon="4.18162">
        <ele>206.82</ele>
        <time>2019-10-13T12:32:53Z</time>
      </trkpt>
      <trkpt lat="44.3194" lon="4.18176">
        <ele>206.34</ele>
        <time>2019-10-13T12:33:09Z</time>
      </trkpt>
      <trkpt lat="44.31931" lon="4.18187">
        <ele>203.94</ele>
        <time>2019-10-13T12:33:24Z</time>
      </trkpt>
      <trkpt lat="44.31923" lon="4.18197">
        <ele>202.01</ele>
        <time>2019-10-13T12:33:40Z</time>
      </trkpt>
      <trkpt lat="44.31919" lon="4.18194">
        <ele>201.05</ele>
        <time>2019-10-13T12:33:55Z</time>
      </trkpt>
      <trkpt lat="44.31916" lon="4.18195">
        <ele>201.05</ele>
        <time>2019-10-13T12:34:14Z</time>
      </trkpt>
      <trkpt lat="44.31916" lon="4.18195">
        <ele>201.05</ele>
        <time>2019-10-13T12:34:45Z</time>
      </trkpt>
      <trkpt lat="44.3192" lon="4.18197">
        <ele>200.57</ele>
        <time>2019-10-13T12:35:09Z</time>
      </trkpt>
      <trkpt lat="44.31926" lon="4.18201">
        <ele>202.49</ele>
        <time>2019-10-13T12:35:17Z</time>
      </trkpt>
      <trkpt lat="44.31925" lon="4.18203">
        <ele>202.49</ele>
        <time>2019-10-13T12:35:34Z</time>
      </trkpt>
      <trkpt lat="44.31925" lon="4.18212">
        <ele>201.05</ele>
        <time>2019-10-13T12:35:52Z</time>
      </trkpt>
      <trkpt lat="44.31926" lon="4.18208">
        <ele>201.05</ele>
        <time>2019-10-13T12:36:09Z</time>
      </trkpt>
      <trkpt lat="44.31924" lon="4.18207">
        <ele>201.05</ele>
        <time>2019-10-13T12:36:38Z</time>
      </trkpt>
      <trkpt lat="44.31921" lon="4.18204">
        <ele>201.05</ele>
        <time>2019-10-13T12:37:08Z</time>
      </trkpt>
      <trkpt lat="44.31927" lon="4.18202">
        <ele>202.01</ele>
        <time>2019-10-13T12:37:32Z</time>
      </trkpt>
      <trkpt lat="44.31924" lon="4.18203">
        <ele>202.01</ele>
        <time>2019-10-13T12:37:56Z</time>
      </trkpt>
      <trkpt lat="44.31923" lon="4.18208">
        <ele>202.01</ele>
        <time>2019-10-13T12:38:30Z</time>
      </trkpt>
      <trkpt lat="44.31922" lon="4.18206">
        <ele>202.01</ele>
        <time>2019-10-13T12:38:58Z</time>
      </trkpt>
      <trkpt lat="44.31924" lon="4.18205">
        <ele>202.01</ele>
        <time>2019-10-13T12:39:16Z</time>
      </trkpt>
      <trkpt lat="44.31925" lon="4.18212">
        <ele>202.01</ele>
        <time>2019-10-13T12:39:26Z</time>
      </trkpt>
      <trkpt lat="44.31928" lon="4.18227">
        <ele>201.05</ele>
        <time>2019-10-13T12:39:40Z</time>
      </trkpt>
      <trkpt lat="44.31929" lon="4.18238">
        <ele>199.61</ele>
        <time>2019-10-13T12:39:52Z</time>
      </trkpt>
      <trkpt lat="44.31931" lon="4.18248">
        <ele>198.65</ele>
        <time>2019-10-13T12:40:03Z</time>
      </trkpt>
      <trkpt lat="44.31929" lon="4.18267">
        <ele>197.69</ele>
        <time>2019-10-13T12:40:20Z</time>
      </trkpt>
      <trkpt lat="44.31924" lon="4.18291">
        <ele>196.25</ele>
        <time>2019-10-13T12:40:36Z</time>
      </trkpt>
      <trkpt lat="44.31924" lon="4.18315">
        <ele>195.28</ele>
        <time>2019-10-13T12:40:51Z</time>
      </trkpt>
      <trkpt lat="44.31919" lon="4.1834">
        <ele>193.36</ele>
        <time>2019-10-13T12:41:08Z</time>
      </trkpt>
      <trkpt lat="44.3191" lon="4.18359">
        <ele>192.88</ele>
        <time>2019-10-13T12:41:22Z</time>
      </trkpt>
      <trkpt lat="44.31899" lon="4.18375">
        <ele>191.44</ele>
        <time>2019-10-13T12:41:37Z</time>
      </trkpt>
      <trkpt lat="44.31887" lon="4.18393">
        <ele>190</ele>
        <time>2019-10-13T12:41:53Z</time>
      </trkpt>
      <trkpt lat="44.31882" lon="4.18414">
        <ele>189.04</ele>
        <time>2019-10-13T12:42:08Z</time>
      </trkpt>
      <trkpt lat="44.31881" lon="4.18419">
        <ele>188.56</ele>
        <time>2019-10-13T12:42:11Z</time>
      </trkpt>
      <trkpt lat="44.31891" lon="4.18434">
        <ele>188.56</ele>
        <time>2019-10-13T12:42:25Z</time>
      </trkpt>
      <trkpt lat="44.31905" lon="4.18443">
        <ele>188.08</ele>
        <time>2019-10-13T12:42:45Z</time>
      </trkpt>
      <trkpt lat="44.31905" lon="4.18443">
        <ele>188.08</ele>
        <time>2019-10-13T12:42:46Z</time>
      </trkpt>
      <trkpt lat="44.31906" lon="4.18453">
        <ele>188.08</ele>
        <time>2019-10-13T12:43:01Z</time>
      </trkpt>
      <trkpt lat="44.31906" lon="4.18451">
        <ele>187.59</ele>
        <time>2019-10-13T12:43:15Z</time>
      </trkpt>
      <trkpt lat="44.31904" lon="4.18458">
        <ele>187.59</ele>
        <time>2019-10-13T12:43:34Z</time>
      </trkpt>
      <trkpt lat="44.31896" lon="4.18476">
        <ele>187.11</ele>
        <time>2019-10-13T12:43:49Z</time>
      </trkpt>
      <trkpt lat="44.31888" lon="4.18488">
        <ele>186.63</ele>
        <time>2019-10-13T12:44:02Z</time>
      </trkpt>
      <trkpt lat="44.3188" lon="4.18503">
        <ele>185.67</ele>
        <time>2019-10-13T12:44:18Z</time>
      </trkpt>
      <trkpt lat="44.31871" lon="4.18519">
        <ele>185.19</ele>
        <time>2019-10-13T12:44:32Z</time>
      </trkpt>
      <trkpt lat="44.31864" lon="4.1853">
        <ele>185.19</ele>
        <time>2019-10-13T12:44:44Z</time>
      </trkpt>
      <trkpt lat="44.31857" lon="4.18546">
        <ele>184.71</ele>
        <time>2019-10-13T12:45:01Z</time>
      </trkpt>
      <trkpt lat="44.31852" lon="4.18561">
        <ele>184.71</ele>
        <time>2019-10-13T12:45:17Z</time>
      </trkpt>
      <trkpt lat="44.31843" lon="4.18586">
        <ele>184.23</ele>
        <time>2019-10-13T12:45:35Z</time>
      </trkpt>
      <trkpt lat="44.31834" lon="4.18607">
        <ele>184.23</ele>
        <time>2019-10-13T12:45:50Z</time>
      </trkpt>
      <trkpt lat="44.31827" lon="4.18622">
        <ele>184.23</ele>
        <time>2019-10-13T12:46:02Z</time>
      </trkpt>
      <trkpt lat="44.31817" lon="4.18639">
        <ele>185.19</ele>
        <time>2019-10-13T12:46:16Z</time>
      </trkpt>
      <trkpt lat="44.31804" lon="4.1865">
        <ele>185.19</ele>
        <time>2019-10-13T12:46:29Z</time>
      </trkpt>
      <trkpt lat="44.31791" lon="4.18662">
        <ele>185.19</ele>
        <time>2019-10-13T12:46:44Z</time>
      </trkpt>
      <trkpt lat="44.31782" lon="4.18681">
        <ele>185.19</ele>
        <time>2019-10-13T12:46:58Z</time>
      </trkpt>
      <trkpt lat="44.31773" lon="4.18703">
        <ele>183.27</ele>
        <time>2019-10-13T12:47:13Z</time>
      </trkpt>
      <trkpt lat="44.31764" lon="4.18724">
        <ele>182.79</ele>
        <time>2019-10-13T12:47:28Z</time>
      </trkpt>
      <trkpt lat="44.31753" lon="4.18743">
        <ele>181.83</ele>
        <time>2019-10-13T12:47:43Z</time>
      </trkpt>
      <trkpt lat="44.31745" lon="4.18762">
        <ele>181.35</ele>
        <time>2019-10-13T12:47:58Z</time>
      </trkpt>
      <trkpt lat="44.31735" lon="4.1878">
        <ele>181.35</ele>
        <time>2019-10-13T12:48:13Z</time>
      </trkpt>
      <trkpt lat="44.31726" lon="4.18798">
        <ele>183.75</ele>
        <time>2019-10-13T12:48:28Z</time>
      </trkpt>
      <trkpt lat="44.31716" lon="4.18821">
        <ele>180.87</ele>
        <time>2019-10-13T12:48:44Z</time>
      </trkpt>
      <trkpt lat="44.31701" lon="4.18842">
        <ele>179.9</ele>
        <time>2019-10-13T12:49:00Z</time>
      </trkpt>
      <trkpt lat="44.31697" lon="4.18853">
        <ele>179.42</ele>
        <time>2019-10-13T12:49:09Z</time>
      </trkpt>
      <trkpt lat="44.31694" lon="4.18865">
        <ele>177.98</ele>
        <time>2019-10-13T12:49:22Z</time>
      </trkpt>
      <trkpt lat="44.31693" lon="4.18865">
        <ele>177.98</ele>
        <time>2019-10-13T12:49:38Z</time>
      </trkpt>
      <trkpt lat="44.31691" lon="4.18873">
        <ele>177.5</ele>
        <time>2019-10-13T12:49:52Z</time>
      </trkpt>
      <trkpt lat="44.31689" lon="4.18881">
        <ele>177.5</ele>
        <time>2019-10-13T12:49:58Z</time>
      </trkpt>
      <trkpt lat="44.31684" lon="4.18899">
        <ele>176.54</ele>
        <time>2019-10-13T12:50:11Z</time>
      </trkpt>
      <trkpt lat="44.31681" lon="4.18908">
        <ele>176.54</ele>
        <time>2019-10-13T12:50:18Z</time>
      </trkpt>
      <trkpt lat="44.31679" lon="4.18922">
        <ele>176.54</ele>
        <time>2019-10-13T12:50:28Z</time>
      </trkpt>
      <trkpt lat="44.31676" lon="4.18939">
        <ele>176.06</ele>
        <time>2019-10-13T12:50:39Z</time>
      </trkpt>
      <trkpt lat="44.31675" lon="4.18963">
        <ele>175.58</ele>
        <time>2019-10-13T12:50:53Z</time>
      </trkpt>
      <trkpt lat="44.31675" lon="4.18964">
        <ele>175.58</ele>
        <time>2019-10-13T12:50:54Z</time>
      </trkpt>
      <trkpt lat="44.31671" lon="4.18985">
        <ele>175.58</ele>
        <time>2019-10-13T12:51:07Z</time>
      </trkpt>
      <trkpt lat="44.31676" lon="4.19004">
        <ele>175.1</ele>
        <time>2019-10-13T12:51:22Z</time>
      </trkpt>
      <trkpt lat="44.31678" lon="4.19006">
        <ele>175.1</ele>
        <time>2019-10-13T12:51:25Z</time>
      </trkpt>
      <trkpt lat="44.31695" lon="4.1901">
        <ele>173.66</ele>
        <time>2019-10-13T12:51:42Z</time>
      </trkpt>
      <trkpt lat="44.31707" lon="4.19011">
        <ele>172.69</ele>
        <time>2019-10-13T12:51:52Z</time>
      </trkpt>
      <trkpt lat="44.31714" lon="4.19022">
        <ele>172.69</ele>
        <time>2019-10-13T12:52:03Z</time>
      </trkpt>
      <trkpt lat="44.31714" lon="4.19023">
        <ele>172.21</ele>
        <time>2019-10-13T12:52:04Z</time>
      </trkpt>
      <trkpt lat="44.31718" lon="4.19044">
        <ele>170.77</ele>
        <time>2019-10-13T12:52:19Z</time>
      </trkpt>
      <trkpt lat="44.31724" lon="4.19067">
        <ele>169.81</ele>
        <time>2019-10-13T12:52:34Z</time>
      </trkpt>
      <trkpt lat="44.31728" lon="4.19089">
        <ele>169.33</ele>
        <time>2019-10-13T12:52:49Z</time>
      </trkpt>
      <trkpt lat="44.3173" lon="4.19105">
        <ele>167.89</ele>
        <time>2019-10-13T12:53:04Z</time>
      </trkpt>
      <trkpt lat="44.31731" lon="4.19111">
        <ele>167.89</ele>
        <time>2019-10-13T12:53:18Z</time>
      </trkpt>
      <trkpt lat="44.31732" lon="4.19114">
        <ele>167.89</ele>
        <time>2019-10-13T12:53:31Z</time>
      </trkpt>
      <trkpt lat="44.31735" lon="4.19135">
        <ele>167.89</ele>
        <time>2019-10-13T12:53:44Z</time>
      </trkpt>
      <trkpt lat="44.31746" lon="4.19132">
        <ele>165</ele>
        <time>2019-10-13T12:54:00Z</time>
      </trkpt>
      <trkpt lat="44.31761" lon="4.19134">
        <ele>165</ele>
        <time>2019-10-13T12:54:15Z</time>
      </trkpt>
      <trkpt lat="44.31767" lon="4.19133">
        <ele>165</ele>
        <time>2019-10-13T12:54:23Z</time>
      </trkpt>
      <trkpt lat="44.31771" lon="4.19129">
        <ele>164.52</ele>
        <time>2019-10-13T12:54:26Z</time>
      </trkpt>
      <trkpt lat="44.31783" lon="4.19124">
        <ele>164.52</ele>
        <time>2019-10-13T12:54:39Z</time>
      </trkpt>
      <trkpt lat="44.31794" lon="4.19118">
        <ele>164.52</ele>
        <time>2019-10-13T12:54:51Z</time>
      </trkpt>
      <trkpt lat="44.31804" lon="4.19112">
        <ele>164.52</ele>
        <time>2019-10-13T12:55:09Z</time>
      </trkpt>
      <trkpt lat="44.31817" lon="4.19105">
        <ele>164.52</ele>
        <time>2019-10-13T12:55:24Z</time>
      </trkpt>
      <trkpt lat="44.3183" lon="4.19094">
        <ele>165.96</ele>
        <time>2019-10-13T12:55:42Z</time>
      </trkpt>
      <trkpt lat="44.31842" lon="4.19084">
        <ele>165.96</ele>
        <time>2019-10-13T12:55:58Z</time>
      </trkpt>
      <trkpt lat="44.31843" lon="4.19082">
        <ele>166.45</ele>
        <time>2019-10-13T12:56:00Z</time>
      </trkpt>
      <trkpt lat="44.31852" lon="4.1907">
        <ele>166.93</ele>
        <time>2019-10-13T12:56:15Z</time>
      </trkpt>
      <trkpt lat="44.31863" lon="4.19058">
        <ele>169.33</ele>
        <time>2019-10-13T12:56:32Z</time>
      </trkpt>
      <trkpt lat="44.3187" lon="4.19051">
        <ele>169.81</ele>
        <time>2019-10-13T12:56:46Z</time>
      </trkpt>
      <trkpt lat="44.31883" lon="4.19042">
        <ele>171.25</ele>
        <time>2019-10-13T12:57:02Z</time>
      </trkpt>
      <trkpt lat="44.31897" lon="4.19037">
        <ele>171.73</ele>
        <time>2019-10-13T12:57:18Z</time>
      </trkpt>
      <trkpt lat="44.31903" lon="4.19032">
        <ele>172.21</ele>
        <time>2019-10-13T12:57:31Z</time>
      </trkpt>
      <trkpt lat="44.31912" lon="4.19027">
        <ele>172.21</ele>
        <time>2019-10-13T12:57:45Z</time>
      </trkpt>
      <trkpt lat="44.3192" lon="4.19026">
        <ele>171.25</ele>
        <time>2019-10-13T12:57:59Z</time>
      </trkpt>
      <trkpt lat="44.31928" lon="4.19037">
        <ele>168.37</ele>
        <time>2019-10-13T12:58:15Z</time>
      </trkpt>
      <trkpt lat="44.3193" lon="4.19038">
        <ele>167.41</ele>
        <time>2019-10-13T12:58:37Z</time>
      </trkpt>
      <trkpt lat="44.31927" lon="4.19043">
        <ele>165.96</ele>
        <time>2019-10-13T12:58:52Z</time>
      </trkpt>
      <trkpt lat="44.31927" lon="4.19039">
        <ele>165.96</ele>
        <time>2019-10-13T12:59:20Z</time>
      </trkpt>
      <trkpt lat="44.31937" lon="4.1904">
        <ele>165.96</ele>
        <time>2019-10-13T12:59:43Z</time>
      </trkpt>
      <trkpt lat="44.31943" lon="4.19035">
        <ele>167.41</ele>
        <time>2019-10-13T12:59:51Z</time>
      </trkpt>
      <trkpt lat="44.31953" lon="4.19034">
        <ele>166.45</ele>
        <time>2019-10-13T13:00:05Z</time>
      </trkpt>
      <trkpt lat="44.31964" lon="4.19031">
        <ele>166.45</ele>
        <time>2019-10-13T13:00:16Z</time>
      </trkpt>
      <trkpt lat="44.31982" lon="4.19027">
        <ele>166.45</ele>
        <time>2019-10-13T13:00:34Z</time>
      </trkpt>
      <trkpt lat="44.31987" lon="4.19029">
        <ele>165.96</ele>
        <time>2019-10-13T13:00:49Z</time>
      </trkpt>
      <trkpt lat="44.31993" lon="4.19034">
        <ele>163.56</ele>
        <time>2019-10-13T13:01:06Z</time>
      </trkpt>
      <trkpt lat="44.31996" lon="4.19033">
        <ele>163.56</ele>
        <time>2019-10-13T13:01:12Z</time>
      </trkpt>
      <trkpt lat="44.32002" lon="4.19036">
        <ele>163.56</ele>
        <time>2019-10-13T13:01:20Z</time>
      </trkpt>
      <trkpt lat="44.32016" lon="4.19036">
        <ele>163.56</ele>
        <time>2019-10-13T13:01:34Z</time>
      </trkpt>
      <trkpt lat="44.3202" lon="4.19032">
        <ele>163.56</ele>
        <time>2019-10-13T13:01:48Z</time>
      </trkpt>
      <trkpt lat="44.32019" lon="4.19031">
        <ele>164.04</ele>
        <time>2019-10-13T13:02:06Z</time>
      </trkpt>
      <trkpt lat="44.32018" lon="4.19031">
        <ele>165</ele>
        <time>2019-10-13T13:02:26Z</time>
      </trkpt>
      <trkpt lat="44.32018" lon="4.19031">
        <ele>165</ele>
        <time>2019-10-13T13:02:33Z</time>
      </trkpt>
      <trkpt lat="44.32029" lon="4.19019">
        <ele>165.48</ele>
        <time>2019-10-13T13:02:47Z</time>
      </trkpt>
      <trkpt lat="44.32031" lon="4.19005">
        <ele>166.45</ele>
        <time>2019-10-13T13:02:59Z</time>
      </trkpt>
      <trkpt lat="44.32031" lon="4.19004">
        <ele>166.45</ele>
        <time>2019-10-13T13:03:00Z</time>
      </trkpt>
      <trkpt lat="44.32032" lon="4.18998">
        <ele>166.93</ele>
        <time>2019-10-13T13:03:04Z</time>
      </trkpt>
      <trkpt lat="44.32033" lon="4.18975">
        <ele>167.41</ele>
        <time>2019-10-13T13:03:19Z</time>
      </trkpt>
      <trkpt lat="44.32034" lon="4.18955">
        <ele>167.41</ele>
        <time>2019-10-13T13:03:33Z</time>
      </trkpt>
      <trkpt lat="44.32032" lon="4.18952">
        <ele>167.41</ele>
        <time>2019-10-13T13:03:44Z</time>
      </trkpt>
      <trkpt lat="44.3203" lon="4.18941">
        <ele>169.33</ele>
        <time>2019-10-13T13:03:57Z</time>
      </trkpt>
      <trkpt lat="44.3203" lon="4.18935">
        <ele>167.89</ele>
        <time>2019-10-13T13:04:06Z</time>
      </trkpt>
      <trkpt lat="44.32033" lon="4.18919">
        <ele>166.93</ele>
        <time>2019-10-13T13:04:21Z</time>
      </trkpt>
      <trkpt lat="44.32035" lon="4.18895">
        <ele>166.93</ele>
        <time>2019-10-13T13:04:40Z</time>
      </trkpt>
      <trkpt lat="44.32039" lon="4.18875">
        <ele>166.93</ele>
        <time>2019-10-13T13:04:57Z</time>
      </trkpt>
      <trkpt lat="44.3205" lon="4.18851">
        <ele>168.37</ele>
        <time>2019-10-13T13:05:17Z</time>
      </trkpt>
      <trkpt lat="44.32051" lon="4.18833">
        <ele>168.85</ele>
        <time>2019-10-13T13:05:29Z</time>
      </trkpt>
      <trkpt lat="44.32052" lon="4.18832">
        <ele>168.85</ele>
        <time>2019-10-13T13:05:30Z</time>
      </trkpt>
      <trkpt lat="44.32047" lon="4.18817">
        <ele>168.85</ele>
        <time>2019-10-13T13:05:43Z</time>
      </trkpt>
      <trkpt lat="44.32039" lon="4.18809">
        <ele>168.85</ele>
        <time>2019-10-13T13:05:55Z</time>
      </trkpt>
      <trkpt lat="44.32033" lon="4.188">
        <ele>168.85</ele>
        <time>2019-10-13T13:06:08Z</time>
      </trkpt>
      <trkpt lat="44.32032" lon="4.18798">
        <ele>168.85</ele>
        <time>2019-10-13T13:06:11Z</time>
      </trkpt>
      <trkpt lat="44.3202" lon="4.18788">
        <ele>168.85</ele>
        <time>2019-10-13T13:06:25Z</time>
      </trkpt>
      <trkpt lat="44.32014" lon="4.18774">
        <ele>168.85</ele>
        <time>2019-10-13T13:06:38Z</time>
      </trkpt>
      <trkpt lat="44.32015" lon="4.18761">
        <ele>167.89</ele>
        <time>2019-10-13T13:06:49Z</time>
      </trkpt>
      <trkpt lat="44.32015" lon="4.18745">
        <ele>167.41</ele>
        <time>2019-10-13T13:07:02Z</time>
      </trkpt>
      <trkpt lat="44.32016" lon="4.18738">
        <ele>168.85</ele>
        <time>2019-10-13T13:07:08Z</time>
      </trkpt>
      <trkpt lat="44.32025" lon="4.18729">
        <ele>168.85</ele>
        <time>2019-10-13T13:07:20Z</time>
      </trkpt>
      <trkpt lat="44.32032" lon="4.18723">
        <ele>168.85</ele>
        <time>2019-10-13T13:07:28Z</time>
      </trkpt>
      <trkpt lat="44.32043" lon="4.18712">
        <ele>168.85</ele>
        <time>2019-10-13T13:07:40Z</time>
      </trkpt>
      <trkpt lat="44.32052" lon="4.18703">
        <ele>169.33</ele>
        <time>2019-10-13T13:07:50Z</time>
      </trkpt>
      <trkpt lat="44.32057" lon="4.187">
        <ele>169.33</ele>
        <time>2019-10-13T13:07:55Z</time>
      </trkpt>
      <trkpt lat="44.32065" lon="4.1869">
        <ele>169.33</ele>
        <time>2019-10-13T13:08:08Z</time>
      </trkpt>
      <trkpt lat="44.32068" lon="4.18687">
        <ele>168.37</ele>
        <time>2019-10-13T13:08:13Z</time>
      </trkpt>
      <trkpt lat="44.3207" lon="4.18682">
        <ele>167.41</ele>
        <time>2019-10-13T13:08:29Z</time>
      </trkpt>
      <trkpt lat="44.32069" lon="4.1868">
        <ele>165</ele>
        <time>2019-10-13T13:08:51Z</time>
      </trkpt>
      <trkpt lat="44.32066" lon="4.18685">
        <ele>166.45</ele>
        <time>2019-10-13T13:09:11Z</time>
      </trkpt>
      <trkpt lat="44.32061" lon="4.18687">
        <ele>168.85</ele>
        <time>2019-10-13T13:09:25Z</time>
      </trkpt>
      <trkpt lat="44.32057" lon="4.187">
        <ele>169.81</ele>
        <time>2019-10-13T13:09:35Z</time>
      </trkpt>
      <trkpt lat="44.32044" lon="4.18712">
        <ele>169.33</ele>
        <time>2019-10-13T13:09:50Z</time>
      </trkpt>
      <trkpt lat="44.32041" lon="4.18716">
        <ele>169.33</ele>
        <time>2019-10-13T13:09:55Z</time>
      </trkpt>
      <trkpt lat="44.32029" lon="4.18728">
        <ele>168.37</ele>
        <time>2019-10-13T13:10:08Z</time>
      </trkpt>
      <trkpt lat="44.32028" lon="4.18728">
        <ele>168.37</ele>
        <time>2019-10-13T13:10:09Z</time>
      </trkpt>
      <trkpt lat="44.3202" lon="4.18733">
        <ele>168.85</ele>
        <time>2019-10-13T13:10:19Z</time>
      </trkpt>
      <trkpt lat="44.32018" lon="4.18731">
        <ele>168.85</ele>
        <time>2019-10-13T13:10:41Z</time>
      </trkpt>
      <trkpt lat="44.32014" lon="4.18727">
        <ele>168.85</ele>
        <time>2019-10-13T13:10:50Z</time>
      </trkpt>
      <trkpt lat="44.32009" lon="4.18714">
        <ele>168.85</ele>
        <time>2019-10-13T13:11:02Z</time>
      </trkpt>
      <trkpt lat="44.32008" lon="4.18707">
        <ele>168.85</ele>
        <time>2019-10-13T13:11:08Z</time>
      </trkpt>
      <trkpt lat="44.32007" lon="4.187">
        <ele>168.85</ele>
        <time>2019-10-13T13:11:13Z</time>
      </trkpt>
      <trkpt lat="44.32007" lon="4.18693">
        <ele>168.85</ele>
        <time>2019-10-13T13:11:18Z</time>
      </trkpt>
      <trkpt lat="44.32006" lon="4.18686">
        <ele>168.85</ele>
        <time>2019-10-13T13:11:23Z</time>
      </trkpt>
      <trkpt lat="44.32" lon="4.18667">
        <ele>169.33</ele>
        <time>2019-10-13T13:11:36Z</time>
      </trkpt>
      <trkpt lat="44.3199" lon="4.18652">
        <ele>169.33</ele>
        <time>2019-10-13T13:11:48Z</time>
      </trkpt>
      <trkpt lat="44.31987" lon="4.18647">
        <ele>169.33</ele>
        <time>2019-10-13T13:11:52Z</time>
      </trkpt>
      <trkpt lat="44.31982" lon="4.18633">
        <ele>169.33</ele>
        <time>2019-10-13T13:12:02Z</time>
      </trkpt>
      <trkpt lat="44.31977" lon="4.18615">
        <ele>170.29</ele>
        <time>2019-10-13T13:12:15Z</time>
      </trkpt>
      <trkpt lat="44.31975" lon="4.18608">
        <ele>170.29</ele>
        <time>2019-10-13T13:12:19Z</time>
      </trkpt>
      <trkpt lat="44.31964" lon="4.18589">
        <ele>170.77</ele>
        <time>2019-10-13T13:12:35Z</time>
      </trkpt>
      <trkpt lat="44.3196" lon="4.18579">
        <ele>170.77</ele>
        <time>2019-10-13T13:12:42Z</time>
      </trkpt>
      <trkpt lat="44.31957" lon="4.18568">
        <ele>170.77</ele>
        <time>2019-10-13T13:12:49Z</time>
      </trkpt>
      <trkpt lat="44.31952" lon="4.18553">
        <ele>171.25</ele>
        <time>2019-10-13T13:13:02Z</time>
      </trkpt>
      <trkpt lat="44.31946" lon="4.18546">
        <ele>170.29</ele>
        <time>2019-10-13T13:13:16Z</time>
      </trkpt>
      <trkpt lat="44.31945" lon="4.18545">
        <ele>170.29</ele>
        <time>2019-10-13T13:13:17Z</time>
      </trkpt>
      <trkpt lat="44.31949" lon="4.18539">
        <ele>171.25</ele>
        <time>2019-10-13T13:13:24Z</time>
      </trkpt>
      <trkpt lat="44.31948" lon="4.18527">
        <ele>172.21</ele>
        <time>2019-10-13T13:13:31Z</time>
      </trkpt>
      <trkpt lat="44.31953" lon="4.18518">
        <ele>172.21</ele>
        <time>2019-10-13T13:13:39Z</time>
      </trkpt>
      <trkpt lat="44.31958" lon="4.185">
        <ele>172.21</ele>
        <time>2019-10-13T13:13:51Z</time>
      </trkpt>
      <trkpt lat="44.31958" lon="4.18496">
        <ele>172.21</ele>
        <time>2019-10-13T13:13:54Z</time>
      </trkpt>
      <trkpt lat="44.31961" lon="4.18479">
        <ele>172.69</ele>
        <time>2019-10-13T13:14:06Z</time>
      </trkpt>
      <trkpt lat="44.31965" lon="4.18467">
        <ele>171.25</ele>
        <time>2019-10-13T13:14:16Z</time>
      </trkpt>
      <trkpt lat="44.31969" lon="4.18452">
        <ele>170.29</ele>
        <time>2019-10-13T13:14:31Z</time>
      </trkpt>
      <trkpt lat="44.31972" lon="4.1844">
        <ele>170.29</ele>
        <time>2019-10-13T13:14:42Z</time>
      </trkpt>
      <trkpt lat="44.31973" lon="4.18431">
        <ele>170.29</ele>
        <time>2019-10-13T13:14:55Z</time>
      </trkpt>
      <trkpt lat="44.31973" lon="4.1842">
        <ele>169.33</ele>
        <time>2019-10-13T13:15:09Z</time>
      </trkpt>
      <trkpt lat="44.31975" lon="4.18417">
        <ele>170.77</ele>
        <time>2019-10-13T13:15:14Z</time>
      </trkpt>
      <trkpt lat="44.31976" lon="4.18413">
        <ele>171.73</ele>
        <time>2019-10-13T13:15:31Z</time>
      </trkpt>
      <trkpt lat="44.31979" lon="4.18418">
        <ele>171.73</ele>
        <time>2019-10-13T13:15:54Z</time>
      </trkpt>
      <trkpt lat="44.31979" lon="4.1842">
        <ele>170.29</ele>
        <time>2019-10-13T13:15:56Z</time>
      </trkpt>
      <trkpt lat="44.31977" lon="4.18429">
        <ele>169.81</ele>
        <time>2019-10-13T13:16:09Z</time>
      </trkpt>
      <trkpt lat="44.31977" lon="4.18431">
        <ele>169.81</ele>
        <time>2019-10-13T13:16:10Z</time>
      </trkpt>
      <trkpt lat="44.31974" lon="4.18443">
        <ele>169.81</ele>
        <time>2019-10-13T13:16:20Z</time>
      </trkpt>
      <trkpt lat="44.31972" lon="4.18455">
        <ele>169.33</ele>
        <time>2019-10-13T13:16:30Z</time>
      </trkpt>
      <trkpt lat="44.31969" lon="4.18464">
        <ele>169.33</ele>
        <time>2019-10-13T13:16:40Z</time>
      </trkpt>
      <trkpt lat="44.31965" lon="4.18472">
        <ele>172.21</ele>
        <time>2019-10-13T13:16:51Z</time>
      </trkpt>
      <trkpt lat="44.31961" lon="4.18483">
        <ele>172.21</ele>
        <time>2019-10-13T13:17:01Z</time>
      </trkpt>
      <trkpt lat="44.31959" lon="4.18484">
        <ele>172.21</ele>
        <time>2019-10-13T13:17:04Z</time>
      </trkpt>
      <trkpt lat="44.31951" lon="4.1849">
        <ele>175.1</ele>
        <time>2019-10-13T13:17:18Z</time>
      </trkpt>
      <trkpt lat="44.31947" lon="4.18489">
        <ele>176.54</ele>
        <time>2019-10-13T13:17:29Z</time>
      </trkpt>
      <trkpt lat="44.31943" lon="4.18486">
        <ele>177.98</ele>
        <time>2019-10-13T13:17:40Z</time>
      </trkpt>
      <trkpt lat="44.31938" lon="4.18482">
        <ele>180.38</ele>
        <time>2019-10-13T13:17:54Z</time>
      </trkpt>
      <trkpt lat="44.31937" lon="4.18477">
        <ele>182.31</ele>
        <time>2019-10-13T13:18:07Z</time>
      </trkpt>
      <trkpt lat="44.31933" lon="4.18475">
        <ele>183.27</ele>
        <time>2019-10-13T13:18:19Z</time>
      </trkpt>
      <trkpt lat="44.31927" lon="4.18472">
        <ele>185.67</ele>
        <time>2019-10-13T13:18:34Z</time>
      </trkpt>
      <trkpt lat="44.31925" lon="4.18469">
        <ele>185.67</ele>
        <time>2019-10-13T13:18:38Z</time>
      </trkpt>
      <trkpt lat="44.31923" lon="4.18468">
        <ele>185.67</ele>
        <time>2019-10-13T13:18:41Z</time>
      </trkpt>
      <trkpt lat="44.31915" lon="4.18459">
        <ele>186.15</ele>
        <time>2019-10-13T13:18:54Z</time>
      </trkpt>
      <trkpt lat="44.31911" lon="4.18447">
        <ele>186.15</ele>
        <time>2019-10-13T13:19:08Z</time>
      </trkpt>
      <trkpt lat="44.31904" lon="4.18441">
        <ele>186.15</ele>
        <time>2019-10-13T13:19:38Z</time>
      </trkpt>
      <trkpt lat="44.31903" lon="4.18441">
        <ele>186.63</ele>
        <time>2019-10-13T13:19:55Z</time>
      </trkpt>
      <trkpt lat="44.31888" lon="4.18431">
        <ele>187.11</ele>
        <time>2019-10-13T13:20:11Z</time>
      </trkpt>
      <trkpt lat="44.31885" lon="4.18426">
        <ele>187.11</ele>
        <time>2019-10-13T13:20:17Z</time>
      </trkpt>
      <trkpt lat="44.31884" lon="4.18421">
        <ele>187.11</ele>
        <time>2019-10-13T13:20:22Z</time>
      </trkpt>
      <trkpt lat="44.31887" lon="4.18402">
        <ele>188.08</ele>
        <time>2019-10-13T13:20:37Z</time>
      </trkpt>
      <trkpt lat="44.31893" lon="4.18389">
        <ele>189.04</ele>
        <time>2019-10-13T13:20:49Z</time>
      </trkpt>
      <trkpt lat="44.31902" lon="4.18375">
        <ele>190</ele>
        <time>2019-10-13T13:21:03Z</time>
      </trkpt>
      <trkpt lat="44.31913" lon="4.18358">
        <ele>190.96</ele>
        <time>2019-10-13T13:21:18Z</time>
      </trkpt>
      <trkpt lat="44.31921" lon="4.18337">
        <ele>192.4</ele>
        <time>2019-10-13T13:21:33Z</time>
      </trkpt>
      <trkpt lat="44.31923" lon="4.18327">
        <ele>192.88</ele>
        <time>2019-10-13T13:21:40Z</time>
      </trkpt>
      <trkpt lat="44.31925" lon="4.18302">
        <ele>193.84</ele>
        <time>2019-10-13T13:21:57Z</time>
      </trkpt>
      <trkpt lat="44.31927" lon="4.18279">
        <ele>194.8</ele>
        <time>2019-10-13T13:22:12Z</time>
      </trkpt>
      <trkpt lat="44.31928" lon="4.18278">
        <ele>195.77</ele>
        <time>2019-10-13T13:22:13Z</time>
      </trkpt>
      <trkpt lat="44.31929" lon="4.1826">
        <ele>196.25</ele>
        <time>2019-10-13T13:22:26Z</time>
      </trkpt>
      <trkpt lat="44.3193" lon="4.18254">
        <ele>196.73</ele>
        <time>2019-10-13T13:22:30Z</time>
      </trkpt>
      <trkpt lat="44.3193" lon="4.18236">
        <ele>198.17</ele>
        <time>2019-10-13T13:22:43Z</time>
      </trkpt>
      <trkpt lat="44.31929" lon="4.18217">
        <ele>200.09</ele>
        <time>2019-10-13T13:22:58Z</time>
      </trkpt>
      <trkpt lat="44.31932" lon="4.18207">
        <ele>201.05</ele>
        <time>2019-10-13T13:23:09Z</time>
      </trkpt>
      <trkpt lat="44.31929" lon="4.18196">
        <ele>201.53</ele>
        <time>2019-10-13T13:23:23Z</time>
      </trkpt>
      <trkpt lat="44.31933" lon="4.18188">
        <ele>202.98</ele>
        <time>2019-10-13T13:23:42Z</time>
      </trkpt>
      <trkpt lat="44.31942" lon="4.1818">
        <ele>205.38</ele>
        <time>2019-10-13T13:23:56Z</time>
      </trkpt>
      <trkpt lat="44.31945" lon="4.1817">
        <ele>205.38</ele>
        <time>2019-10-13T13:24:08Z</time>
      </trkpt>
      <trkpt lat="44.31946" lon="4.18155">
        <ele>206.34</ele>
        <time>2019-10-13T13:24:22Z</time>
      </trkpt>
      <trkpt lat="44.3195" lon="4.18133">
        <ele>208.74</ele>
        <time>2019-10-13T13:24:40Z</time>
      </trkpt>
      <trkpt lat="44.31951" lon="4.18119">
        <ele>210.67</ele>
        <time>2019-10-13T13:24:54Z</time>
      </trkpt>
      <trkpt lat="44.3195" lon="4.18109">
        <ele>210.67</ele>
        <time>2019-10-13T13:25:12Z</time>
      </trkpt>
      <trkpt lat="44.31953" lon="4.18092">
        <ele>211.63</ele>
        <time>2019-10-13T13:25:27Z</time>
      </trkpt>
      <trkpt lat="44.31956" lon="4.18081">
        <ele>213.07</ele>
        <time>2019-10-13T13:25:37Z</time>
      </trkpt>
      <trkpt lat="44.31957" lon="4.18066">
        <ele>214.03</ele>
        <time>2019-10-13T13:25:50Z</time>
      </trkpt>
      <trkpt lat="44.31957" lon="4.1805">
        <ele>215.95</ele>
        <time>2019-10-13T13:26:03Z</time>
      </trkpt>
      <trkpt lat="44.31956" lon="4.18033">
        <ele>216.91</ele>
        <time>2019-10-13T13:26:17Z</time>
      </trkpt>
      <trkpt lat="44.31955" lon="4.18017">
        <ele>218.84</ele>
        <time>2019-10-13T13:26:31Z</time>
      </trkpt>
      <trkpt lat="44.31957" lon="4.18003">
        <ele>220.28</ele>
        <time>2019-10-13T13:26:44Z</time>
      </trkpt>
      <trkpt lat="44.31957" lon="4.18">
        <ele>220.76</ele>
        <time>2019-10-13T13:26:46Z</time>
      </trkpt>
      <trkpt lat="44.31958" lon="4.17984">
        <ele>222.2</ele>
        <time>2019-10-13T13:27:00Z</time>
      </trkpt>
      <trkpt lat="44.31959" lon="4.17968">
        <ele>223.64</ele>
        <time>2019-10-13T13:27:13Z</time>
      </trkpt>
      <trkpt lat="44.31959" lon="4.17955">
        <ele>224.61</ele>
        <time>2019-10-13T13:27:24Z</time>
      </trkpt>
      <trkpt lat="44.31961" lon="4.17942">
        <ele>226.05</ele>
        <time>2019-10-13T13:27:36Z</time>
      </trkpt>
      <trkpt lat="44.31962" lon="4.17928">
        <ele>227.01</ele>
        <time>2019-10-13T13:27:49Z</time>
      </trkpt>
      <trkpt lat="44.31962" lon="4.17911">
        <ele>228.45</ele>
        <time>2019-10-13T13:28:02Z</time>
      </trkpt>
      <trkpt lat="44.31964" lon="4.17893">
        <ele>229.89</ele>
        <time>2019-10-13T13:28:18Z</time>
      </trkpt>
      <trkpt lat="44.31966" lon="4.17878">
        <ele>231.33</ele>
        <time>2019-10-13T13:28:31Z</time>
      </trkpt>
      <trkpt lat="44.31969" lon="4.17866">
        <ele>232.78</ele>
        <time>2019-10-13T13:28:43Z</time>
      </trkpt>
      <trkpt lat="44.31966" lon="4.17855">
        <ele>233.26</ele>
        <time>2019-10-13T13:28:56Z</time>
      </trkpt>
      <trkpt lat="44.31969" lon="4.1784">
        <ele>234.22</ele>
        <time>2019-10-13T13:29:08Z</time>
      </trkpt>
      <trkpt lat="44.31972" lon="4.17822">
        <ele>235.18</ele>
        <time>2019-10-13T13:29:23Z</time>
      </trkpt>
      <trkpt lat="44.31972" lon="4.17818">
        <ele>235.66</ele>
        <time>2019-10-13T13:29:26Z</time>
      </trkpt>
      <trkpt lat="44.31974" lon="4.17799">
        <ele>236.14</ele>
        <time>2019-10-13T13:29:40Z</time>
      </trkpt>
      <trkpt lat="44.31974" lon="4.17778">
        <ele>236.14</ele>
        <time>2019-10-13T13:29:56Z</time>
      </trkpt>
      <trkpt lat="44.31968" lon="4.17754">
        <ele>234.7</ele>
        <time>2019-10-13T13:30:15Z</time>
      </trkpt>
      <trkpt lat="44.31967" lon="4.17749">
        <ele>234.7</ele>
        <time>2019-10-13T13:30:34Z</time>
      </trkpt>
      <trkpt lat="44.31969" lon="4.17747">
        <ele>234.7</ele>
        <time>2019-10-13T13:30:37Z</time>
      </trkpt>
      <trkpt lat="44.31957" lon="4.17726">
        <ele>234.7</ele>
        <time>2019-10-13T13:30:53Z</time>
      </trkpt>
      <trkpt lat="44.31948" lon="4.17714">
        <ele>234.7</ele>
        <time>2019-10-13T13:31:06Z</time>
      </trkpt>
      <trkpt lat="44.31937" lon="4.177">
        <ele>234.22</ele>
        <time>2019-10-13T13:31:21Z</time>
      </trkpt>
      <trkpt lat="44.31926" lon="4.17687">
        <ele>232.78</ele>
        <time>2019-10-13T13:31:34Z</time>
      </trkpt>
      <trkpt lat="44.31925" lon="4.17687">
        <ele>232.78</ele>
        <time>2019-10-13T13:31:35Z</time>
      </trkpt>
      <trkpt lat="44.31913" lon="4.17675">
        <ele>231.81</ele>
        <time>2019-10-13T13:31:50Z</time>
      </trkpt>
      <trkpt lat="44.31899" lon="4.17663">
        <ele>230.37</ele>
        <time>2019-10-13T13:32:08Z</time>
      </trkpt>
      <trkpt lat="44.31897" lon="4.17658">
        <ele>229.89</ele>
        <time>2019-10-13T13:32:14Z</time>
      </trkpt>
      <trkpt lat="44.31897" lon="4.17654">
        <ele>229.89</ele>
        <time>2019-10-13T13:32:16Z</time>
      </trkpt>
      <trkpt lat="44.31896" lon="4.1764">
        <ele>229.41</ele>
        <time>2019-10-13T13:32:27Z</time>
      </trkpt>
      <trkpt lat="44.31894" lon="4.17615">
        <ele>228.93</ele>
        <time>2019-10-13T13:32:43Z</time>
      </trkpt>
      <trkpt lat="44.31893" lon="4.1759">
        <ele>228.45</ele>
        <time>2019-10-13T13:32:58Z</time>
      </trkpt>
      <trkpt lat="44.31892" lon="4.17567">
        <ele>228.45</ele>
        <time>2019-10-13T13:33:11Z</time>
      </trkpt>
      <trkpt lat="44.31892" lon="4.17551">
        <ele>227.97</ele>
        <time>2019-10-13T13:33:20Z</time>
      </trkpt>
      <trkpt lat="44.31888" lon="4.17528">
        <ele>227.49</ele>
        <time>2019-10-13T13:33:35Z</time>
      </trkpt>
      <trkpt lat="44.31876" lon="4.17508">
        <ele>227.49</ele>
        <time>2019-10-13T13:33:51Z</time>
      </trkpt>
      <trkpt lat="44.31872" lon="4.175">
        <ele>227.49</ele>
        <time>2019-10-13T13:33:57Z</time>
      </trkpt>
      <trkpt lat="44.31868" lon="4.17481">
        <ele>227.49</ele>
        <time>2019-10-13T13:34:09Z</time>
      </trkpt>
      <trkpt lat="44.31863" lon="4.17456">
        <ele>227.49</ele>
        <time>2019-10-13T13:34:26Z</time>
      </trkpt>
      <trkpt lat="44.31862" lon="4.17441">
        <ele>227.01</ele>
        <time>2019-10-13T13:34:38Z</time>
      </trkpt>
      <trkpt lat="44.31861" lon="4.17419">
        <ele>227.01</ele>
        <time>2019-10-13T13:34:54Z</time>
      </trkpt>
      <trkpt lat="44.3186" lon="4.17392">
        <ele>227.01</ele>
        <time>2019-10-13T13:35:10Z</time>
      </trkpt>
      <trkpt lat="44.31859" lon="4.17372">
        <ele>228.45</ele>
        <time>2019-10-13T13:35:25Z</time>
      </trkpt>
      <trkpt lat="44.31856" lon="4.17352">
        <ele>229.41</ele>
        <time>2019-10-13T13:35:41Z</time>
      </trkpt>
      <trkpt lat="44.31856" lon="4.17334">
        <ele>229.89</ele>
        <time>2019-10-13T13:35:53Z</time>
      </trkpt>
      <trkpt lat="44.31852" lon="4.17318">
        <ele>230.37</ele>
        <time>2019-10-13T13:36:05Z</time>
      </trkpt>
      <trkpt lat="44.3185" lon="4.17306">
        <ele>230.37</ele>
        <time>2019-10-13T13:36:18Z</time>
      </trkpt>
      <trkpt lat="44.31844" lon="4.17288">
        <ele>230.37</ele>
        <time>2019-10-13T13:36:33Z</time>
      </trkpt>
      <trkpt lat="44.31837" lon="4.17261">
        <ele>230.85</ele>
        <time>2019-10-13T13:36:50Z</time>
      </trkpt>
      <trkpt lat="44.31834" lon="4.17239">
        <ele>230.85</ele>
        <time>2019-10-13T13:37:05Z</time>
      </trkpt>
      <trkpt lat="44.31834" lon="4.17233">
        <ele>230.85</ele>
        <time>2019-10-13T13:37:09Z</time>
      </trkpt>
      <trkpt lat="44.31836" lon="4.17207">
        <ele>231.81</ele>
        <time>2019-10-13T13:37:27Z</time>
      </trkpt>
      <trkpt lat="44.31835" lon="4.17185">
        <ele>231.81</ele>
        <time>2019-10-13T13:37:42Z</time>
      </trkpt>
      <trkpt lat="44.31836" lon="4.17163">
        <ele>232.3</ele>
        <time>2019-10-13T13:37:57Z</time>
      </trkpt>
      <trkpt lat="44.31836" lon="4.17142">
        <ele>232.78</ele>
        <time>2019-10-13T13:38:10Z</time>
      </trkpt>
      <trkpt lat="44.31838" lon="4.17119">
        <ele>232.78</ele>
        <time>2019-10-13T13:38:24Z</time>
      </trkpt>
      <trkpt lat="44.31839" lon="4.17096">
        <ele>233.26</ele>
        <time>2019-10-13T13:38:39Z</time>
      </trkpt>
      <trkpt lat="44.31837" lon="4.17071">
        <ele>233.26</ele>
        <time>2019-10-13T13:38:56Z</time>
      </trkpt>
      <trkpt lat="44.31835" lon="4.17056">
        <ele>231.81</ele>
        <time>2019-10-13T13:39:06Z</time>
      </trkpt>
      <trkpt lat="44.31841" lon="4.17033">
        <ele>231.33</ele>
        <time>2019-10-13T13:39:22Z</time>
      </trkpt>
      <trkpt lat="44.31845" lon="4.17008">
        <ele>231.33</ele>
        <time>2019-10-13T13:39:38Z</time>
      </trkpt>
      <trkpt lat="44.31847" lon="4.17003">
        <ele>231.33</ele>
        <time>2019-10-13T13:39:42Z</time>
      </trkpt>
      <trkpt lat="44.31855" lon="4.16987">
        <ele>231.33</ele>
        <time>2019-10-13T13:39:56Z</time>
      </trkpt>
      <trkpt lat="44.31856" lon="4.16984">
        <ele>231.33</ele>
        <time>2019-10-13T13:39:58Z</time>
      </trkpt>
      <trkpt lat="44.31861" lon="4.16959">
        <ele>232.3</ele>
        <time>2019-10-13T13:40:14Z</time>
      </trkpt>
      <trkpt lat="44.31866" lon="4.16935">
        <ele>232.3</ele>
        <time>2019-10-13T13:40:30Z</time>
      </trkpt>
      <trkpt lat="44.31865" lon="4.16922">
        <ele>232.78</ele>
        <time>2019-10-13T13:40:40Z</time>
      </trkpt>
      <trkpt lat="44.31867" lon="4.1691">
        <ele>233.26</ele>
        <time>2019-10-13T13:40:47Z</time>
      </trkpt>
      <trkpt lat="44.31868" lon="4.16887">
        <ele>233.74</ele>
        <time>2019-10-13T13:41:02Z</time>
      </trkpt>
      <trkpt lat="44.31868" lon="4.16871">
        <ele>235.18</ele>
        <time>2019-10-13T13:41:17Z</time>
      </trkpt>
      <trkpt lat="44.31869" lon="4.16852">
        <ele>236.14</ele>
        <time>2019-10-13T13:41:31Z</time>
      </trkpt>
      <trkpt lat="44.31867" lon="4.1683">
        <ele>237.58</ele>
        <time>2019-10-13T13:41:46Z</time>
      </trkpt>
      <trkpt lat="44.31861" lon="4.1681">
        <ele>237.1</ele>
        <time>2019-10-13T13:42:01Z</time>
      </trkpt>
      <trkpt lat="44.31858" lon="4.16798">
        <ele>237.1</ele>
        <time>2019-10-13T13:42:09Z</time>
      </trkpt>
      <trkpt lat="44.31858" lon="4.16774">
        <ele>237.1</ele>
        <time>2019-10-13T13:42:25Z</time>
      </trkpt>
      <trkpt lat="44.31853" lon="4.16756">
        <ele>237.1</ele>
        <time>2019-10-13T13:42:40Z</time>
      </trkpt>
      <trkpt lat="44.31851" lon="4.16743">
        <ele>236.14</ele>
        <time>2019-10-13T13:42:53Z</time>
      </trkpt>
      <trkpt lat="44.31851" lon="4.16741">
        <ele>236.14</ele>
        <time>2019-10-13T13:42:54Z</time>
      </trkpt>
      <trkpt lat="44.31845" lon="4.16718">
        <ele>236.14</ele>
        <time>2019-10-13T13:43:11Z</time>
      </trkpt>
      <trkpt lat="44.31842" lon="4.16713">
        <ele>237.1</ele>
        <time>2019-10-13T13:43:25Z</time>
      </trkpt>
      <trkpt lat="44.31837" lon="4.16706">
        <ele>237.1</ele>
        <time>2019-10-13T13:43:41Z</time>
      </trkpt>
      <trkpt lat="44.31842" lon="4.16698">
        <ele>236.14</ele>
        <time>2019-10-13T13:43:56Z</time>
      </trkpt>
      <trkpt lat="44.31846" lon="4.16674">
        <ele>236.14</ele>
        <time>2019-10-13T13:44:14Z</time>
      </trkpt>
      <trkpt lat="44.31846" lon="4.1666">
        <ele>236.14</ele>
        <time>2019-10-13T13:44:23Z</time>
      </trkpt>
      <trkpt lat="44.31849" lon="4.16636">
        <ele>236.14</ele>
        <time>2019-10-13T13:44:38Z</time>
      </trkpt>
      <trkpt lat="44.31847" lon="4.16608">
        <ele>236.14</ele>
        <time>2019-10-13T13:44:56Z</time>
      </trkpt>
      <trkpt lat="44.31849" lon="4.16588">
        <ele>236.14</ele>
        <time>2019-10-13T13:45:10Z</time>
      </trkpt>
      <trkpt lat="44.31849" lon="4.16569">
        <ele>236.14</ele>
        <time>2019-10-13T13:45:23Z</time>
      </trkpt>
      <trkpt lat="44.31849" lon="4.16568">
        <ele>236.14</ele>
        <time>2019-10-13T13:45:24Z</time>
      </trkpt>
      <trkpt lat="44.31838" lon="4.16546">
        <ele>235.18</ele>
        <time>2019-10-13T13:45:39Z</time>
      </trkpt>
      <trkpt lat="44.31831" lon="4.16532">
        <ele>235.18</ele>
        <time>2019-10-13T13:45:49Z</time>
      </trkpt>
      <trkpt lat="44.31822" lon="4.16512">
        <ele>234.7</ele>
        <time>2019-10-13T13:46:04Z</time>
      </trkpt>
      <trkpt lat="44.31812" lon="4.1649">
        <ele>233.26</ele>
        <time>2019-10-13T13:46:20Z</time>
      </trkpt>
      <trkpt lat="44.31808" lon="4.16468">
        <ele>233.26</ele>
        <time>2019-10-13T13:46:34Z</time>
      </trkpt>
      <trkpt lat="44.31803" lon="4.16448">
        <ele>233.26</ele>
        <time>2019-10-13T13:46:48Z</time>
      </trkpt>
      <trkpt lat="44.31792" lon="4.1643">
        <ele>233.26</ele>
        <time>2019-10-13T13:47:02Z</time>
      </trkpt>
      <trkpt lat="44.31777" lon="4.1641">
        <ele>233.26</ele>
        <time>2019-10-13T13:47:19Z</time>
      </trkpt>
      <trkpt lat="44.31766" lon="4.16388">
        <ele>233.74</ele>
        <time>2019-10-13T13:47:35Z</time>
      </trkpt>
      <trkpt lat="44.3176" lon="4.16369">
        <ele>233.74</ele>
        <time>2019-10-13T13:47:48Z</time>
      </trkpt>
      <trkpt lat="44.31754" lon="4.16346">
        <ele>233.74</ele>
        <time>2019-10-13T13:48:03Z</time>
      </trkpt>
      <trkpt lat="44.31749" lon="4.16323">
        <ele>233.74</ele>
        <time>2019-10-13T13:48:17Z</time>
      </trkpt>
      <trkpt lat="44.31747" lon="4.16315">
        <ele>234.7</ele>
        <time>2019-10-13T13:48:23Z</time>
      </trkpt>
      <trkpt lat="44.31743" lon="4.16301">
        <ele>235.18</ele>
        <time>2019-10-13T13:48:38Z</time>
      </trkpt>
      <trkpt lat="44.31742" lon="4.16301">
        <ele>235.18</ele>
        <time>2019-10-13T13:48:55Z</time>
      </trkpt>
      <trkpt lat="44.31743" lon="4.16296">
        <ele>235.18</ele>
        <time>2019-10-13T13:48:59Z</time>
      </trkpt>
      <trkpt lat="44.31742" lon="4.16269">
        <ele>235.18</ele>
        <time>2019-10-13T13:49:15Z</time>
      </trkpt>
      <trkpt lat="44.31742" lon="4.16246">
        <ele>235.18</ele>
        <time>2019-10-13T13:49:30Z</time>
      </trkpt>
      <trkpt lat="44.31741" lon="4.16226">
        <ele>235.18</ele>
        <time>2019-10-13T13:49:43Z</time>
      </trkpt>
      <trkpt lat="44.31738" lon="4.16203">
        <ele>235.18</ele>
        <time>2019-10-13T13:49:56Z</time>
      </trkpt>
      <trkpt lat="44.31736" lon="4.16195">
        <ele>235.18</ele>
        <time>2019-10-13T13:50:09Z</time>
      </trkpt>
      <trkpt lat="44.31737" lon="4.1619">
        <ele>236.62</ele>
        <time>2019-10-13T13:50:27Z</time>
      </trkpt>
      <trkpt lat="44.31733" lon="4.16172">
        <ele>236.62</ele>
        <time>2019-10-13T13:50:42Z</time>
      </trkpt>
      <trkpt lat="44.3173" lon="4.16168">
        <ele>236.62</ele>
        <time>2019-10-13T13:50:48Z</time>
      </trkpt>
      <trkpt lat="44.31726" lon="4.16153">
        <ele>236.62</ele>
        <time>2019-10-13T13:50:58Z</time>
      </trkpt>
      <trkpt lat="44.31725" lon="4.16144">
        <ele>236.62</ele>
        <time>2019-10-13T13:51:03Z</time>
      </trkpt>
      <trkpt lat="44.31722" lon="4.1612">
        <ele>236.62</ele>
        <time>2019-10-13T13:51:19Z</time>
      </trkpt>
      <trkpt lat="44.31722" lon="4.16098">
        <ele>237.1</ele>
        <time>2019-10-13T13:51:33Z</time>
      </trkpt>
      <trkpt lat="44.31721" lon="4.16077">
        <ele>237.1</ele>
        <time>2019-10-13T13:51:46Z</time>
      </trkpt>
      <trkpt lat="44.31719" lon="4.16055">
        <ele>237.1</ele>
        <time>2019-10-13T13:51:59Z</time>
      </trkpt>
      <trkpt lat="44.31716" lon="4.1603">
        <ele>237.58</ele>
        <time>2019-10-13T13:52:15Z</time>
      </trkpt>
      <trkpt lat="44.31716" lon="4.16011">
        <ele>237.58</ele>
        <time>2019-10-13T13:52:28Z</time>
      </trkpt>
      <trkpt lat="44.31717" lon="4.15991">
        <ele>238.06</ele>
        <time>2019-10-13T13:52:41Z</time>
      </trkpt>
      <trkpt lat="44.31721" lon="4.15966">
        <ele>238.06</ele>
        <time>2019-10-13T13:52:58Z</time>
      </trkpt>
      <trkpt lat="44.31725" lon="4.15943">
        <ele>238.06</ele>
        <time>2019-10-13T13:53:12Z</time>
      </trkpt>
      <trkpt lat="44.31726" lon="4.15921">
        <ele>238.06</ele>
        <time>2019-10-13T13:53:25Z</time>
      </trkpt>
      <trkpt lat="44.31725" lon="4.15896">
        <ele>238.06</ele>
        <time>2019-10-13T13:53:39Z</time>
      </trkpt>
      <trkpt lat="44.31724" lon="4.15872">
        <ele>239.02</ele>
        <time>2019-10-13T13:53:54Z</time>
      </trkpt>
      <trkpt lat="44.31724" lon="4.15853">
        <ele>239.02</ele>
        <time>2019-10-13T13:54:07Z</time>
      </trkpt>
      <trkpt lat="44.31723" lon="4.15828">
        <ele>239.02</ele>
        <time>2019-10-13T13:54:22Z</time>
      </trkpt>
      <trkpt lat="44.31721" lon="4.15805">
        <ele>239.02</ele>
        <time>2019-10-13T13:54:36Z</time>
      </trkpt>
      <trkpt lat="44.3172" lon="4.15781">
        <ele>239.02</ele>
        <time>2019-10-13T13:54:51Z</time>
      </trkpt>
      <trkpt lat="44.3172" lon="4.1576">
        <ele>239.02</ele>
        <time>2019-10-13T13:55:05Z</time>
      </trkpt>
      <trkpt lat="44.31721" lon="4.15739">
        <ele>239.02</ele>
        <time>2019-10-13T13:55:18Z</time>
      </trkpt>
      <trkpt lat="44.3172" lon="4.15719">
        <ele>239.02</ele>
        <time>2019-10-13T13:55:30Z</time>
      </trkpt>
      <trkpt lat="44.31718" lon="4.15702">
        <ele>239.02</ele>
        <time>2019-10-13T13:55:40Z</time>
      </trkpt>
      <trkpt lat="44.31717" lon="4.15675">
        <ele>239.02</ele>
        <time>2019-10-13T13:55:57Z</time>
      </trkpt>
      <trkpt lat="44.31717" lon="4.15671">
        <ele>239.02</ele>
        <time>2019-10-13T13:56:00Z</time>
      </trkpt>
      <trkpt lat="44.31715" lon="4.1566">
        <ele>239.02</ele>
        <time>2019-10-13T13:56:07Z</time>
      </trkpt>
      <trkpt lat="44.31716" lon="4.15653">
        <ele>239.02</ele>
        <time>2019-10-13T13:56:11Z</time>
      </trkpt>
      <trkpt lat="44.31716" lon="4.15629">
        <ele>239.02</ele>
        <time>2019-10-13T13:56:26Z</time>
      </trkpt>
      <trkpt lat="44.31715" lon="4.15608">
        <ele>239.02</ele>
        <time>2019-10-13T13:56:40Z</time>
      </trkpt>
      <trkpt lat="44.31716" lon="4.15603">
        <ele>239.02</ele>
        <time>2019-10-13T13:56:43Z</time>
      </trkpt>
      <trkpt lat="44.31715" lon="4.15597">
        <ele>239.51</ele>
        <time>2019-10-13T13:56:47Z</time>
      </trkpt>
      <trkpt lat="44.31714" lon="4.15579">
        <ele>239.99</ele>
        <time>2019-10-13T13:56:59Z</time>
      </trkpt>
      <trkpt lat="44.31712" lon="4.15575">
        <ele>239.99</ele>
        <time>2019-10-13T13:57:02Z</time>
      </trkpt>
      <trkpt lat="44.31707" lon="4.15572">
        <ele>240.47</ele>
        <time>2019-10-13T13:57:08Z</time>
      </trkpt>
      <trkpt lat="44.31694" lon="4.15583">
        <ele>240.47</ele>
        <time>2019-10-13T13:57:21Z</time>
      </trkpt>
      <trkpt lat="44.31691" lon="4.15585">
        <ele>240.47</ele>
        <time>2019-10-13T13:57:25Z</time>
      </trkpt>
      <trkpt lat="44.31676" lon="4.15598">
        <ele>240.47</ele>
        <time>2019-10-13T13:57:39Z</time>
      </trkpt>
      <trkpt lat="44.31669" lon="4.15603">
        <ele>240.47</ele>
        <time>2019-10-13T13:57:47Z</time>
      </trkpt>
      <trkpt lat="44.31656" lon="4.15614">
        <ele>240.47</ele>
        <time>2019-10-13T13:58:02Z</time>
      </trkpt>
      <trkpt lat="44.31642" lon="4.15621">
        <ele>240.47</ele>
        <time>2019-10-13T13:58:16Z</time>
      </trkpt>
    </trkseg>
  </trk>
</gpx>